Main page
METAR-TAF:

METAR-TAF

Airports :

Harry Mwanga Nkumbula International Airport

Livingstone, Zambia

latitude: 17-49-18S, longitude: 025-49-22E, elevation: 991 m

Current weather observation

The report was made 1 hour and 6 minutes ago, at 12:00 UTC
Wind 4 kt from the Southeast
Temperature 35°C
Humidity 19%
Pressure 1012 hPa
Visibility 10 km or more
no clouds below 1500 m and no cumulonimbus

METAR: FLHN 211200Z 14004KT CAVOK 35/08 Q1012 NOSIG

Time: 15:06 (13:06 UTC)


TAF: missing

Weather observations and forecasts of more than 4000 airports (METAR and TAF reports).

The available stations are represented by yellow and red dots on the map.

Hover mouse over dot to see the name of the station.

Then click to see weather observations and forecasts.

To change the map : click on the green buttons with a black cross to zoom in, on the green button with a dash to zoom out, or on the green arrows for adjacent maps.


METAR-TAF: